createdAt,value
2019-05-17T00:00:37.115Z,8.40
2019-05-17T00:03:06.807Z,8.40
2019-05-17T00:05:34.113Z,8.30
2019-05-17T00:08:01.969Z,8.40
2019-05-17T00:10:29.744Z,8.30
2019-05-17T00:12:57.601Z,8.30
2019-05-17T00:15:27.352Z,8.30
2019-05-17T00:17:57.040Z,8.30
2019-05-17T00:20:26.634Z,8.30
2019-05-17T00:22:54.093Z,8.20
2019-05-17T00:25:21.990Z,8.20
2019-05-17T00:27:49.833Z,8.20
2019-05-17T00:30:17.837Z,8.20
2019-05-17T00:32:47.498Z,8.20
2019-05-17T00:35:17.548Z,8.20
2019-05-17T00:37:46.501Z,8.20
2019-05-17T00:40:16.684Z,8.20
2019-05-17T00:42:46.435Z,8.10
2019-05-17T00:45:14.406Z,8.20
2019-05-17T00:47:42.170Z,8.10
2019-05-17T00:50:09.958Z,8.20
2019-05-17T00:52:37.818Z,8.20
2019-05-17T00:55:06.723Z,8.10
2019-05-17T00:57:36.660Z,8.10
2019-05-17T01:00:04.585Z,8.20
2019-05-17T01:02:32.458Z,8.30
2019-05-17T01:05:00.242Z,8.40
2019-05-17T01:07:28.007Z,8.50
2019-05-17T01:09:56.559Z,8.50
2019-05-17T01:12:26.957Z,8.70
2019-05-17T01:14:54.173Z,8.80
2019-05-17T01:17:22.026Z,8.80
2019-05-17T01:19:49.940Z,8.90
2019-05-17T01:22:17.698Z,8.90
2019-05-17T01:24:46.304Z,8.90
2019-05-17T01:27:14.202Z,8.90
2019-05-17T01:29:41.991Z,8.90
2019-05-17T01:32:09.936Z,8.90
2019-05-17T01:34:37.807Z,8.80
2019-05-17T01:37:06.489Z,8.80
2019-05-17T01:39:34.514Z,8.80
2019-05-17T01:42:02.303Z,8.80
2019-05-17T01:44:30.183Z,8.80
2019-05-17T01:46:58.133Z,8.80
2019-05-17T01:49:27.075Z,8.80
2019-05-17T01:51:56.839Z,8.90
2019-05-17T01:54:26.770Z,8.90
2019-05-17T01:56:56.528Z,8.90
2019-05-17T01:59:23.858Z,8.90
2019-05-17T02:01:53.315Z,8.90
2019-05-17T02:04:21.143Z,8.90
2019-05-17T02:06:48.933Z,8.90
2019-05-17T02:09:33.437Z,8.80
2019-05-17T02:11:46.721Z,8.80
2019-05-17T02:14:16.616Z,8.80
2019-05-17T02:16:46.611Z,8.80
2019-05-17T02:19:13.659Z,8.80
2019-05-17T02:21:41.471Z,8.90
2019-05-17T02:24:09.395Z,8.80
2019-05-17T02:26:37.544Z,8.80
2019-05-17T02:29:05.503Z,8.80
2019-05-17T02:31:33.516Z,8.80
2019-05-17T02:34:03.110Z,8.80
2019-05-17T02:36:33.239Z,8.80
2019-05-17T02:39:03.340Z,8.80
2019-05-17T02:41:33.081Z,8.90
2019-05-17T02:44:02.378Z,8.90
2019-05-17T02:46:29.656Z,8.80
2019-05-17T02:48:57.484Z,8.80
2019-05-17T02:51:25.387Z,8.70
2019-05-17T02:53:53.166Z,8.70
2019-05-17T02:56:23.054Z,8.70
2019-05-17T02:58:53.351Z,8.70
2019-05-17T03:01:22.930Z,8.60
2019-05-17T03:03:52.598Z,8.50
2019-05-17T03:06:22.562Z,8.50
2019-05-17T03:08:48.719Z,8.50
2019-05-17T03:11:16.604Z,8.50
2019-05-17T03:13:44.541Z,8.50
2019-05-17T03:16:14.739Z,8.50
2019-05-17T03:18:43.835Z,8.40
2019-05-17T03:21:13.497Z,8.40
2019-05-17T03:23:43.518Z,8.40
2019-05-17T03:26:13.199Z,8.40
2019-05-17T03:28:42.657Z,8.40
2019-05-17T03:31:17.084Z,8.50
2019-05-17T03:33:45.375Z,8.50
2019-05-17T03:36:15.976Z,8.50
2019-05-17T03:38:42.985Z,8.50
2019-05-17T03:41:18.162Z,8.50
2019-05-17T03:43:41.209Z,8.50
2019-05-17T03:46:08.364Z,8.40
2019-05-17T03:48:36.509Z,8.50
2019-05-17T03:51:04.349Z,8.50
2019-05-17T03:53:33.401Z,8.50
2019-05-17T03:56:03.127Z,8.60
2019-05-17T03:58:33.343Z,8.60
2019-05-17T04:01:03.773Z,8.60
2019-05-17T04:03:32.375Z,8.70
2019-05-17T04:05:59.677Z,8.70
2019-05-17T04:08:27.560Z,8.60
2019-05-17T04:10:55.323Z,8.60
2019-05-17T04:13:23.718Z,8.60
2019-05-17T04:15:53.021Z,8.50
2019-05-17T04:18:23.568Z,8.60
2019-05-17T04:20:52.774Z,8.60
2019-05-17T04:23:23.287Z,8.80
2019-05-17T04:25:52.402Z,8.80
2019-05-17T04:28:22.621Z,8.90
2019-05-17T04:30:48.992Z,9.10
2019-05-17T04:33:16.901Z,9.10
2019-05-17T04:35:44.771Z,9.20
2019-05-17T04:38:12.848Z,9.20
2019-05-17T04:40:43.139Z,9.20
2019-05-17T04:43:13.303Z,9.30
2019-05-17T04:45:42.491Z,9.40
2019-05-17T04:48:12.824Z,9.50
2019-05-17T04:50:39.204Z,9.60
2019-05-17T04:53:07.091Z,9.60
2019-05-17T04:55:34.947Z,9.70
2019-05-17T04:58:03.914Z,9.70
2019-05-17T05:00:34.043Z,9.80
2019-05-17T05:03:03.764Z,9.80
2019-05-17T05:05:33.044Z,9.90
2019-05-17T05:08:03.033Z,10.10
2019-05-17T05:10:32.932Z,10.20
2019-05-17T05:13:02.791Z,10.30
2019-05-17T05:15:39.188Z,10.40
2019-05-17T05:18:07.430Z,10.50
2019-05-17T05:20:36.253Z,10.70
2019-05-17T05:23:04.163Z,10.80
2019-05-17T05:25:32.424Z,11.00
2019-05-17T05:28:02.318Z,11.10
2019-05-17T05:30:31.943Z,11.10
2019-05-17T05:32:59.388Z,11.30
2019-05-17T05:35:28.995Z,11.40
2019-05-17T05:37:56.866Z,11.50
2019-05-17T05:40:24.729Z,11.50
2019-05-17T05:42:52.595Z,11.60
2019-05-17T05:45:22.458Z,11.70
2019-05-17T05:47:52.087Z,11.80
2019-05-17T05:50:21.708Z,11.90
2019-05-17T05:52:49.069Z,11.90
2019-05-17T05:55:17.027Z,12.10
2019-05-17T05:57:44.898Z,12.20
2019-05-17T06:00:14.589Z,12.30
2019-05-17T06:02:42.454Z,12.30
2019-05-17T06:05:13.563Z,12.40
2019-05-17T06:07:41.671Z,12.50
2019-05-17T06:10:09.856Z,12.50
2019-05-17T06:12:37.706Z,12.60
2019-05-17T06:15:05.575Z,12.70
2019-05-17T06:17:33.383Z,12.80
2019-05-17T06:20:02.638Z,12.80
2019-05-17T06:22:31.828Z,12.70
2019-05-17T06:24:59.934Z,12.80
2019-05-17T06:27:27.730Z,12.90
2019-05-17T06:29:55.598Z,12.90
2019-05-17T06:32:23.450Z,13.10
2019-05-17T06:34:51.578Z,13.20
2019-05-17T06:37:22.187Z,13.30
2019-05-17T06:39:49.298Z,13.40
2019-05-17T06:42:17.067Z,13.50
2019-05-17T06:44:44.971Z,13.60
2019-05-17T06:47:12.986Z,13.60
2019-05-17T06:49:42.353Z,13.70
2019-05-17T06:52:11.636Z,13.80
2019-05-17T06:54:41.728Z,13.90
2019-05-17T06:57:09.674Z,13.90
2019-05-17T06:59:37.480Z,14.00
2019-05-17T07:02:05.335Z,14.10
2019-05-17T07:04:33.131Z,14.20
2019-05-17T07:07:20.692Z,14.20
2019-05-17T07:09:49.669Z,14.20
2019-05-17T07:12:20.063Z,14.30
2019-05-17T07:14:47.128Z,14.20
2019-05-17T07:17:14.904Z,14.30
2019-05-17T07:19:42.700Z,14.30
2019-05-17T07:22:10.470Z,14.40
2019-05-17T07:24:39.725Z,14.50
2019-05-17T07:27:09.844Z,14.70
2019-05-17T07:29:37.152Z,14.70
2019-05-17T07:32:04.970Z,14.80
2019-05-17T07:34:32.765Z,14.90
2019-05-17T07:37:00.563Z,14.90
2019-05-17T07:39:29.531Z,14.80
2019-05-17T07:41:57.429Z,14.80
2019-05-17T07:44:25.195Z,14.80
2019-05-17T07:46:53.010Z,14.90
2019-05-17T07:49:20.792Z,14.80
2019-05-17T07:51:50.278Z,14.90
2019-05-17T07:54:19.717Z,15.10
2019-05-17T07:56:47.614Z,15.20
2019-05-17T07:59:15.392Z,15.10
2019-05-17T08:01:43.178Z,15.20
2019-05-17T08:04:11.289Z,15.20
2019-05-17T08:06:40.337Z,15.20
2019-05-17T08:09:13.757Z,15.20
2019-05-17T08:11:39.663Z,15.40
2019-05-17T08:14:07.668Z,15.50
2019-05-17T08:16:35.480Z,15.60
2019-05-17T08:19:03.283Z,15.60
2019-05-17T08:21:31.091Z,15.60
2019-05-17T08:24:00.116Z,15.60
2019-05-17T08:26:29.626Z,15.80
2019-05-17T08:28:57.675Z,15.90
2019-05-17T08:31:25.455Z,15.90
2019-05-17T08:33:53.464Z,16.00
2019-05-17T08:36:21.265Z,16.00
2019-05-17T08:38:50.177Z,16.10
2019-05-17T08:41:20.627Z,16.10
2019-05-17T08:43:47.680Z,16.10
2019-05-17T08:46:15.483Z,16.10
2019-05-17T08:48:43.264Z,16.30
2019-05-17T08:51:11.072Z,16.40
2019-05-17T08:53:39.874Z,16.40
2019-05-17T08:56:09.962Z,16.40
2019-05-17T08:58:37.531Z,16.60
2019-05-17T09:01:05.329Z,16.70
2019-05-17T09:03:33.114Z,16.90
2019-05-17T09:06:02.036Z,17.00
2019-05-17T09:08:30.412Z,17.00
2019-05-17T09:11:00.405Z,17.00
2019-05-17T09:13:29.714Z,17.10
2019-05-17T09:15:57.238Z,17.20
2019-05-17T09:18:25.059Z,17.30
2019-05-17T09:20:52.840Z,17.60
2019-05-17T09:23:20.635Z,17.80
2019-05-17T09:25:50.081Z,18.10
2019-05-17T09:28:20.324Z,18.20
2019-05-17T09:30:47.730Z,18.60
2019-05-17T09:33:15.635Z,18.70
2019-05-17T09:35:43.407Z,19.00
2019-05-17T09:38:11.220Z,19.20
2019-05-17T09:40:40.232Z,19.20
2019-05-17T09:43:10.208Z,19.30
2019-05-17T09:45:40.429Z,19.50
2019-05-17T09:48:09.974Z,19.60
2019-05-17T09:50:39.613Z,20.00
2019-05-17T09:53:06.538Z,20.20
2019-05-17T09:55:34.387Z,20.40
2019-05-17T09:58:02.195Z,20.40
2019-05-17T10:00:30.721Z,20.30
2019-05-17T10:03:00.065Z,20.30
2019-05-17T10:05:31.087Z,20.30
2019-05-17T10:07:59.998Z,20.00
2019-05-17T10:10:27.669Z,19.70
2019-05-17T10:12:55.544Z,19.70
2019-05-17T10:15:23.335Z,19.60
2019-05-17T10:17:51.145Z,19.30
2019-05-17T10:20:19.991Z,19.20
2019-05-17T10:22:50.395Z,19.30
2019-05-17T10:25:19.978Z,19.40
2019-05-17T10:27:49.667Z,19.40
2019-05-17T10:30:16.948Z,19.20
2019-05-17T10:32:44.765Z,19.30
2019-05-17T10:35:12.610Z,19.60
2019-05-17T10:37:41.057Z,19.80
2019-05-17T10:40:10.172Z,20.20
2019-05-17T10:42:39.593Z,20.40
2019-05-17T10:45:10.554Z,20.80
2019-05-17T10:47:39.645Z,21.00
2019-05-17T10:50:07.248Z,21.30
2019-05-17T10:52:35.035Z,21.60
2019-05-17T10:55:02.904Z,21.80
2019-05-17T10:57:30.675Z,21.90
2019-05-17T10:59:59.296Z,22.00
2019-05-17T11:02:27.226Z,22.00
2019-05-17T11:04:55.030Z,22.00
2019-05-17T11:07:22.891Z,21.80
2019-05-17T11:09:51.169Z,21.60
2019-05-17T11:12:19.127Z,21.50
2019-05-17T11:14:55.913Z,21.40
2019-05-17T11:17:16.604Z,21.30
2019-05-17T11:19:44.460Z,21.30
2019-05-17T11:22:12.249Z,21.30
2019-05-17T11:24:40.055Z,21.40
2019-05-17T11:27:07.999Z,21.50
2019-05-17T11:29:35.801Z,21.50
2019-05-17T11:32:03.664Z,21.50
2019-05-17T11:34:31.453Z,21.70
2019-05-17T11:36:59.220Z,21.90
2019-05-17T11:39:27.019Z,22.10
2019-05-17T11:41:54.807Z,22.30
2019-05-17T11:44:22.615Z,22.30
2019-05-17T11:46:50.391Z,22.30
2019-05-17T11:49:18.196Z,22.50
2019-05-17T11:51:45.983Z,22.60
2019-05-17T11:54:13.775Z,22.60
2019-05-17T11:56:41.895Z,22.60
2019-05-17T11:59:09.688Z,22.50
2019-05-17T12:01:37.747Z,22.60
2019-05-17T12:04:05.560Z,22.40
2019-05-17T12:06:33.445Z,22.40
2019-05-17T12:09:01.360Z,22.50
2019-05-17T12:11:29.215Z,22.60
2019-05-17T12:13:56.987Z,22.90
2019-05-17T12:16:25.095Z,22.90
2019-05-17T12:18:52.888Z,22.80
2019-05-17T12:21:20.679Z,22.90
2019-05-17T12:23:48.479Z,22.90
2019-05-17T12:26:16.287Z,23.00
2019-05-17T12:28:44.075Z,23.30
2019-05-17T12:31:11.868Z,23.50
2019-05-17T12:33:39.638Z,23.80
2019-05-17T12:36:07.605Z,24.10
2019-05-17T12:38:35.403Z,24.30
2019-05-17T12:41:03.214Z,24.50
2019-05-17T12:43:30.987Z,24.60
2019-05-17T12:46:01.129Z,24.70
2019-05-17T12:48:28.299Z,24.70
2019-05-17T12:50:56.105Z,24.90
2019-05-17T12:53:23.881Z,24.80
2019-05-17T12:55:51.701Z,24.50
2019-05-17T12:58:19.475Z,24.10
2019-05-17T13:00:47.281Z,23.80
2019-05-17T13:03:15.050Z,23.60
2019-05-17T13:05:42.848Z,23.30
2019-05-17T13:08:10.649Z,22.90
2019-05-17T13:10:38.450Z,22.50
2019-05-17T13:13:09.353Z,22.00
2019-05-17T13:15:35.772Z,21.70
2019-05-17T13:18:03.549Z,21.60
2019-05-17T13:20:31.348Z,21.70
2019-05-17T13:22:59.444Z,21.90
2019-05-17T13:25:27.235Z,22.30
2019-05-17T13:27:55.023Z,22.70
2019-05-17T13:30:22.811Z,23.10
2019-05-17T13:32:50.663Z,23.30
2019-05-17T13:35:18.552Z,23.40
2019-05-17T13:37:46.433Z,23.40
2019-05-17T13:40:14.487Z,23.20
2019-05-17T13:42:42.550Z,23.10
2019-05-17T13:45:10.896Z,22.90
2019-05-17T13:47:38.704Z,22.90
2019-05-17T13:50:06.988Z,22.80
2019-05-17T13:52:34.820Z,22.80
2019-05-17T13:55:02.692Z,23.00
2019-05-17T13:57:30.499Z,23.20
2019-05-17T13:59:58.343Z,23.30
2019-05-17T14:02:26.145Z,23.50
2019-05-17T14:04:53.915Z,23.50
2019-05-17T14:07:21.706Z,23.60
2019-05-17T14:09:49.487Z,23.60
2019-05-17T14:12:17.300Z,23.90
2019-05-17T14:14:45.148Z,24.20
2019-05-17T14:17:13.034Z,24.40
2019-05-17T14:19:40.806Z,24.70
2019-05-17T14:22:08.612Z,25.10
2019-05-17T14:24:36.388Z,25.30
2019-05-17T14:27:04.186Z,25.30
2019-05-17T14:29:32.298Z,25.30
2019-05-17T14:32:00.110Z,25.20
2019-05-17T14:34:27.956Z,25.30
2019-05-17T14:36:55.758Z,25.70
2019-05-17T14:39:23.530Z,25.80
2019-05-17T14:41:51.326Z,26.00
2019-05-17T14:44:19.095Z,26.00
2019-05-17T14:46:46.907Z,26.30
2019-05-17T14:49:14.685Z,26.50
2019-05-17T14:51:42.487Z,26.40
2019-05-17T14:54:10.496Z,26.50
2019-05-17T14:56:38.289Z,26.40
2019-05-17T14:59:06.134Z,25.90
2019-05-17T15:01:33.957Z,25.60
2019-05-17T15:04:01.733Z,25.70
2019-05-17T15:06:29.546Z,26.00
2019-05-17T15:08:57.318Z,26.40
2019-05-17T15:11:25.162Z,26.80
2019-05-17T15:13:52.922Z,26.80
2019-05-17T15:16:20.799Z,27.10
2019-05-17T15:18:48.615Z,27.50
2019-05-17T15:21:16.630Z,27.60
2019-05-17T15:23:44.423Z,27.90
2019-05-17T15:26:12.207Z,28.10
2019-05-17T15:28:40.019Z,28.30
2019-05-17T15:31:08.025Z,28.20
2019-05-17T15:33:35.828Z,28.20
2019-05-17T15:36:03.691Z,28.60
2019-05-17T15:38:31.573Z,29.00
2019-05-17T15:40:59.355Z,29.00
2019-05-17T15:43:27.150Z,28.80
2019-05-17T15:45:54.926Z,28.10
2019-05-17T15:48:22.796Z,27.30
2019-05-17T15:50:50.658Z,26.60
2019-05-17T15:53:18.502Z,25.90
2019-05-17T15:55:46.369Z,25.30
2019-05-17T15:58:14.173Z,25.00
2019-05-17T16:00:41.946Z,24.80
2019-05-17T16:03:09.808Z,25.40
2019-05-17T16:05:37.588Z,26.00
2019-05-17T16:08:05.394Z,26.20
2019-05-17T16:10:33.451Z,26.00
2019-05-17T16:13:03.130Z,25.70
2019-05-17T16:15:30.806Z,25.80
2019-05-17T16:17:58.631Z,26.70
2019-05-17T16:20:26.429Z,27.00
2019-05-17T16:22:54.223Z,26.60
2019-05-17T16:25:22.003Z,25.90
2019-05-17T16:27:49.899Z,25.20
2019-05-17T16:30:17.698Z,24.50
2019-05-17T16:32:45.501Z,23.90
2019-05-17T16:35:13.410Z,23.40
2019-05-17T16:37:41.263Z,23.10
2019-05-17T16:40:09.210Z,23.00
2019-05-17T16:42:37.004Z,22.50
2019-05-17T16:45:06.088Z,22.30
2019-05-17T16:47:33.871Z,22.50
2019-05-17T16:50:01.663Z,23.40
2019-05-17T16:52:29.460Z,23.90
2019-05-17T16:54:57.268Z,24.00
2019-05-17T16:57:25.114Z,23.30
2019-05-17T16:59:52.924Z,22.70
2019-05-17T17:02:20.698Z,22.00
2019-05-17T17:04:48.503Z,21.60
2019-05-17T17:07:16.284Z,21.50
2019-05-17T17:09:44.088Z,22.20
2019-05-17T17:12:11.928Z,22.80
2019-05-17T17:14:39.724Z,23.20
2019-05-17T17:17:11.688Z,23.90
2019-05-17T17:19:37.083Z,25.00
2019-05-17T17:22:05.042Z,26.10
2019-05-17T17:24:32.839Z,26.00
2019-05-17T17:27:00.631Z,25.60
2019-05-17T17:29:28.473Z,24.70
2019-05-17T17:31:56.263Z,23.90
2019-05-17T17:34:24.138Z,23.90
2019-05-17T17:36:52.310Z,24.60
2019-05-17T17:39:20.120Z,25.70
2019-05-17T17:41:47.900Z,26.70
2019-05-17T17:44:15.760Z,27.20
2019-05-17T17:46:43.775Z,27.30
2019-05-17T17:49:11.665Z,27.40
2019-05-17T17:51:39.616Z,27.70
2019-05-17T17:54:07.419Z,27.50
2019-05-17T17:56:35.306Z,27.30
2019-05-17T17:59:03.110Z,26.90
2019-05-17T18:01:31.013Z,26.30
2019-05-17T18:03:58.808Z,25.70
2019-05-17T18:06:26.634Z,25.00
2019-05-17T18:08:54.549Z,24.40
2019-05-17T18:11:22.584Z,23.70
2019-05-17T18:13:50.395Z,23.10
2019-05-17T18:16:19.439Z,22.50
2019-05-17T18:18:47.862Z,21.80
2019-05-17T18:21:15.686Z,21.20
2019-05-17T18:23:43.485Z,20.60
2019-05-17T18:26:11.352Z,20.20
2019-05-17T18:28:39.556Z,19.80
2019-05-17T18:31:07.462Z,19.50
2019-05-17T18:33:35.604Z,19.30
2019-05-17T18:36:03.441Z,19.00
2019-05-17T18:38:31.847Z,18.80
2019-05-17T18:40:59.780Z,18.60
2019-05-17T18:43:27.718Z,18.40
2019-05-17T18:45:55.503Z,18.30
2019-05-17T18:48:23.362Z,18.20
2019-05-17T18:50:52.332Z,18.00
2019-05-17T18:53:20.863Z,17.90
2019-05-17T18:55:48.760Z,17.70
2019-05-17T18:58:16.571Z,17.50
2019-05-17T19:00:44.947Z,17.40
2019-05-17T19:03:12.821Z,17.30
2019-05-17T19:05:40.705Z,17.20
2019-05-17T19:08:08.552Z,17.10
2019-05-17T19:10:36.445Z,17.00
2019-05-17T19:13:04.291Z,17.00
2019-05-17T19:15:32.215Z,16.90
2019-05-17T19:18:00.022Z,16.80
2019-05-17T19:20:27.923Z,16.70
2019-05-17T19:22:55.732Z,16.60
2019-05-17T19:25:23.675Z,16.50
2019-05-17T19:27:51.500Z,16.50
2019-05-17T19:30:19.659Z,16.50
2019-05-17T19:32:47.545Z,16.40
2019-05-17T19:35:15.606Z,16.40
2019-05-17T19:37:43.840Z,16.40
2019-05-17T19:40:11.876Z,16.40
2019-05-17T19:42:39.728Z,16.40
2019-05-17T19:45:08.014Z,16.40
2019-05-17T19:47:35.876Z,16.40
2019-05-17T19:50:03.998Z,16.40
2019-05-17T19:52:31.819Z,16.40
2019-05-17T19:54:59.677Z,16.40
2019-05-17T19:57:27.955Z,16.30
2019-05-17T19:59:56.051Z,16.40
2019-05-17T20:02:24.341Z,16.40
2019-05-17T20:04:52.163Z,16.30
2019-05-17T20:07:19.988Z,16.30
2019-05-17T20:09:48.163Z,16.30
2019-05-17T20:12:16.736Z,16.30
2019-05-17T20:14:44.514Z,16.30
2019-05-17T20:17:12.873Z,16.30
2019-05-17T20:19:40.668Z,16.30
2019-05-17T20:22:08.488Z,16.20
2019-05-17T20:24:36.610Z,16.30
2019-05-17T20:27:04.779Z,16.20
2019-05-17T20:29:32.595Z,16.20
2019-05-17T20:32:00.967Z,16.10
2019-05-17T20:34:28.847Z,16.20
2019-05-17T20:36:56.728Z,16.10
2019-05-17T20:39:24.535Z,16.10
2019-05-17T20:41:52.467Z,16.10
2019-05-17T20:44:20.589Z,16.00
2019-05-17T20:46:48.499Z,16.00
2019-05-17T20:49:16.279Z,16.00
2019-05-17T20:51:44.088Z,15.90
2019-05-17T20:54:11.877Z,15.80
2019-05-17T20:56:39.679Z,15.80
2019-05-17T20:59:07.782Z,15.70
2019-05-17T21:01:35.578Z,15.70
2019-05-17T21:04:03.369Z,15.70
2019-05-17T21:06:31.434Z,15.60
2019-05-17T21:08:59.253Z,15.60
2019-05-17T21:11:27.116Z,15.60
2019-05-17T21:13:54.942Z,15.70
2019-05-17T21:16:22.925Z,15.60
2019-05-17T21:18:52.955Z,15.60
2019-05-17T21:21:20.299Z,15.60
2019-05-17T21:23:48.116Z,15.50
2019-05-17T21:26:15.903Z,15.50
2019-05-17T21:28:46.987Z,15.50
2019-05-17T21:31:13.336Z,15.50
2019-05-17T21:33:41.268Z,15.50
2019-05-17T21:36:09.492Z,15.50
2019-05-17T21:38:37.320Z,15.50
2019-05-17T21:41:05.192Z,15.50
2019-05-17T21:43:33.007Z,15.40
2019-05-17T21:46:03.813Z,15.40
2019-05-17T21:48:30.866Z,15.40
2019-05-17T21:50:58.791Z,15.30
2019-05-17T21:53:26.592Z,15.20
2019-05-17T21:55:54.394Z,15.20
2019-05-17T21:58:22.194Z,15.10
2019-05-17T22:00:54.071Z,15.00
2019-05-17T22:03:21.930Z,14.90
2019-05-17T22:05:49.775Z,14.80
2019-05-17T22:08:17.581Z,14.80
2019-05-17T22:10:45.605Z,14.80
2019-05-17T22:13:13.503Z,14.70
2019-05-17T22:15:41.304Z,14.70
2019-05-17T22:18:09.106Z,14.70
2019-05-17T22:20:36.912Z,14.60
2019-05-17T22:23:05.763Z,14.70
2019-05-17T22:25:33.626Z,14.60
2019-05-17T22:28:01.469Z,14.60
2019-05-17T22:30:29.250Z,14.50
2019-05-17T22:32:57.050Z,14.50
2019-05-17T22:35:24.874Z,14.50
2019-05-17T22:37:52.672Z,14.40
2019-05-17T22:40:20.465Z,14.40
2019-05-17T22:42:48.321Z,14.40
2019-05-17T22:45:16.130Z,14.30
2019-05-17T22:47:44.005Z,14.30
2019-05-17T22:50:11.972Z,14.30
2019-05-17T22:52:39.863Z,14.20
2019-05-17T22:55:07.804Z,14.20
2019-05-17T22:57:36.984Z,14.20
2019-05-17T23:00:05.081Z,14.10
2019-05-17T23:05:00.434Z,14.10
2019-05-17T23:07:28.272Z,14.10
2019-05-17T23:09:56.202Z,14.00
2019-05-17T23:12:24.029Z,14.00
2019-05-17T23:14:51.891Z,14.00
2019-05-17T23:17:19.991Z,13.90
2019-05-17T23:19:47.841Z,13.90
2019-05-17T23:22:15.694Z,13.90
2019-05-17T23:24:43.577Z,13.80
2019-05-17T23:27:11.635Z,13.80
2019-05-17T23:29:41.192Z,13.80
2019-05-17T23:32:09.276Z,13.70
2019-05-17T23:34:37.095Z,13.80
2019-05-17T23:37:04.943Z,13.70
2019-05-17T23:39:33.571Z,13.70
2019-05-17T23:42:01.423Z,13.60
2019-05-17T23:44:30.096Z,13.60
2019-05-17T23:47:06.733Z,13.60
2019-05-17T23:49:28.135Z,13.50
2019-05-17T23:51:55.923Z,13.40
2019-05-17T23:54:23.809Z,13.40
2019-05-17T23:56:51.667Z,13.40
2019-05-17T23:59:19.548Z,13.30
